Reecon Whale — 9HA2885 — position and weather

sailwx.info

Track history (hours):
 
Tides and Currents Weather Stations Pressure Air Temp Water Temp Dewpoint Dewpoint Depression Visibility Wind Speed Wind Dir Waves Ship Positions

Reecon Whale

Last reported at 2014-Sep-30 17:31 UTC. Time now 2014-Sep-30 18:08 UTC.
Position N 38°42' W 009°10'.

Length 145 m; draft 8.9 m.

Type: Ship. MMSI: 256579000.

Date/timePositionNaut miles runAvg speedWind from/ knotsBaromVisibWave heightAir tempDewpointWater temp
2014-Sep-30 17:31N 38°42' W 009°10'0 0.0
2014-Sep-30 16:31N 38°42' W 009°10'0 0.0
2014-Sep-30 15:31N 38°42' W 009°10'0 0.0
2014-Sep-30 14:31N 38°42' W 009°10'0 0.0
2014-Sep-30 13:31N 38°42' W 009°10'2 1.7
2014-Sep-30 12:34N 38°42' W 009°12'8 8.4
2014-Sep-30 11:34N 38°38' W 009°21'1111.0
2014-Sep-30 10:33N 38°38' W 009°36'1410.0
2014-Sep-30 09:11N 38°50' W 009°44'11 0.2
2014-Sep-28 11:28N 38°59' W 009°51'1111.5
2014-Sep-28 10:33N 38°49' W 009°52'1111.2
2014-Sep-28 09:33N 38°38' W 009°49'1111.2
2014-Sep-28 08:32N 38°27' W 009°46'1111.2
2014-Sep-28 07:33N 38°16' W 009°43'1111.1
2014-Sep-28 06:33N 38°05' W 009°40'1111.1
2014-Sep-28 05:33N 37°54' W 009°37'1211.4
2014-Sep-28 04:33N 37°43' W 009°33'2511.3
2014-Sep-28 02:22N 37°19' W 009°27'1411.5
2014-Sep-28 01:07N 37°05' W 009°23'711.4
2014-Sep-28 00:32N 36°59' W 009°21'2310.1
2014-Sep-27 22:19N 36°42' W 009°02'911.0
2014-Sep-27 21:33N 36°40' W 008°52'1111.0
2014-Sep-27 20:33N 36°36' W 008°39'158 3.2
2014-Sep-25 19:33N 36°08' W 005°26'2 0.5
2014-Sep-25 15:26N 36°10' W 005°25'0 0.0
2014-Sep-25 14:10N 36°10' W 005°25'2 2.8
2014-Sep-25 13:34N 36°09' W 005°24'6 6.1
2014-Sep-25 12:32N 36°03' W 005°20'7 6.7
2014-Sep-25 11:27N 36°07' W 005°13'4 0.8
2014-Sep-25 06:31N 36°04' W 005°13'2 1.5
2014-Sep-25 05:26N 36°04' W 005°15'3 3.5
2014-Sep-25 04:34N 36°03' W 005°19'4 3.4
2014-Sep-25 03:29N 36°02' W 005°23'219 9.4
2014-Sep-24 04:14N 37°32' W 009°32'811.4
2014-Sep-24 03:33N 37°40' W 009°31'1111.2
2014-Sep-24 02:33N 37°51' W 009°29'1111.2
2014-Sep-24 01:34N 38°02' W 009°28'1211.5
2014-Sep-24 00:33N 38°14' W 009°26'1111.5
2014-Sep-23 23:33N 38°25' W 009°25'1111.5
2014-Sep-23 22:34N 38°37' W 009°23'10 9.9
2014-Sep-23 21:34N 38°42' W 009°12'1 1.3
2014-Sep-23 20:32N 38°42' W 009°10'0 0.0
2014-Sep-23 19:32N 38°42' W 009°10'0 0.0
2014-Sep-23 18:29N 38°42' W 009°10'0 0.0
2014-Sep-23 17:32N 38°42' W 009°10'0 0.0
2014-Sep-23 16:32N 38°42' W 009°10'0 0.0
2014-Sep-23 15:32N 38°42' W 009°10'0 0.0
2014-Sep-23 14:32N 38°42' W 009°10'0 0.0
2014-Sep-23 13:32N 38°42' W 009°10'0 0.0
2014-Sep-23 12:32N 38°42' W 009°10'0 0.0
2014-Sep-23 11:32N 38°42' W 009°10'0 0.0
2014-Sep-23 10:32N 38°42' W 009°10'0 0.0
2014-Sep-23 09:32N 38°42' W 009°10'0 0.0
2014-Sep-23 08:32N 38°42' W 009°10'0 0.0
2014-Sep-23 07:32N 38°42' W 009°10'0 0.0
2014-Sep-23 06:32N 38°42' W 009°10'3 3.1
2014-Sep-23 05:33N 38°41' W 009°14'4 4.4
2014-Sep-23 04:33N 38°40' W 009°19'7 6.9
2014-Sep-23 03:33N 38°37' W 009°27'10 9.8
2014-Sep-23 02:33N 38°39' W 009°40'9 8.6
2014-Sep-23 01:27N 38°48' W 009°44'9 9.8
2014-Sep-23 00:30N 38°57' W 009°44'5 0.2
2014-Sep-21 13:33N 38°57' W 009°51'1412.1
2014-Sep-21 12:25N 38°43' W 009°51'1012.2
2014-Sep-21 11:33N 38°33' W 009°48'1212.0
2014-Sep-21 10:32N 38°21' W 009°45'1212.2
2014-Sep-21 09:33N 38°10' W 009°41'1211.9
2014-Sep-21 08:33N 37°58' W 009°38'1211.8
2014-Sep-21 07:33N 37°47' W 009°35'1111.4
2014-Sep-21 06:33N 37°35' W 009°31'1111.5
2014-Sep-21 05:33N 37°24' W 009°28'4710.8
2014-Sep-21 01:11N 36°42' W 009°02'711.5
2014-Sep-21 00:34N 36°40' W 008°53'1211.7
2014-Sep-20 23:33N 36°36' W 008°39'1111.4
2014-Sep-20 22:34N 36°33' W 008°26'1211.5
2014-Sep-20 21:31N 36°29' W 008°12'1111.5
2014-Sep-20 20:34N 36°26' W 007°59'1211.7
2014-Sep-20 19:34N 36°22' W 007°45'1211.8
2014-Sep-20 18:33N 36°18' W 007°31'1211.8
2014-Sep-20 17:33N 36°15' W 007°17'  
Track history (hours):
 
Tides and Currents Weather Stations Pressure Air Temp Water Temp Dewpoint Dewpoint Depression Visibility Wind Speed Wind Dir Waves Ship Positions

Reecon Whale

Last reported at 2014-Sep-30 17:31 UTC. Time now 2014-Sep-30 18:08 UTC.
Position N 38°42' W 009°10'.

Length 145 m; draft 8.9 m.

Type: Ship. MMSI: 256579000.

Date/timePositionNaut miles runAvg speedWind from/ knotsBaromVisibWave heightAir tempDewpointWater temp
2014-Sep-30 17:31N 38°42' W 009°10'0 0.0
2014-Sep-30 16:31N 38°42' W 009°10'0 0.0
2014-Sep-30 15:31N 38°42' W 009°10'0 0.0
2014-Sep-30 14:31N 38°42' W 009°10'0 0.0
2014-Sep-30 13:31N 38°42' W 009°10'2 1.7
2014-Sep-30 12:34N 38°42' W 009°12'8 8.4
2014-Sep-30 11:34N 38°38' W 009°21'1111.0
2014-Sep-30 10:33N 38°38' W 009°36'1410.0
2014-Sep-30 09:11N 38°50' W 009°44'11 0.2
2014-Sep-28 11:28N 38°59' W 009°51'1111.5
2014-Sep-28 10:33N 38°49' W 009°52'1111.2
2014-Sep-28 09:33N 38°38' W 009°49'1111.2
2014-Sep-28 08:32N 38°27' W 009°46'1111.2
2014-Sep-28 07:33N 38°16' W 009°43'1111.1
2014-Sep-28 06:33N 38°05' W 009°40'1111.1
2014-Sep-28 05:33N 37°54' W 009°37'1211.4
2014-Sep-28 04:33N 37°43' W 009°33'2511.3
2014-Sep-28 02:22N 37°19' W 009°27'1411.5
2014-Sep-28 01:07N 37°05' W 009°23'711.4
2014-Sep-28 00:32N 36°59' W 009°21'2310.1
2014-Sep-27 22:19N 36°42' W 009°02'911.0
2014-Sep-27 21:33N 36°40' W 008°52'1111.0
2014-Sep-27 20:33N 36°36' W 008°39'158 3.2
2014-Sep-25 19:33N 36°08' W 005°26'2 0.5
2014-Sep-25 15:26N 36°10' W 005°25'0 0.0
2014-Sep-25 14:10N 36°10' W 005°25'2 2.8
2014-Sep-25 13:34N 36°09' W 005°24'6 6.1
2014-Sep-25 12:32N 36°03' W 005°20'7 6.7
2014-Sep-25 11:27N 36°07' W 005°13'4 0.8
2014-Sep-25 06:31N 36°04' W 005°13'2 1.5
2014-Sep-25 05:26N 36°04' W 005°15'3 3.5
2014-Sep-25 04:34N 36°03' W 005°19'4 3.4
2014-Sep-25 03:29N 36°02' W 005°23'219 9.4
2014-Sep-24 04:14N 37°32' W 009°32'811.4
2014-Sep-24 03:33N 37°40' W 009°31'1111.2
2014-Sep-24 02:33N 37°51' W 009°29'1111.2
2014-Sep-24 01:34N 38°02' W 009°28'1211.5
2014-Sep-24 00:33N 38°14' W 009°26'1111.5
2014-Sep-23 23:33N 38°25' W 009°25'1111.5
2014-Sep-23 22:34N 38°37' W 009°23'10 9.9
2014-Sep-23 21:34N 38°42' W 009°12'1 1.3
2014-Sep-23 20:32N 38°42' W 009°10'0 0.0
2014-Sep-23 19:32N 38°42' W 009°10'0 0.0
2014-Sep-23 18:29N 38°42' W 009°10'0 0.0
2014-Sep-23 17:32N 38°42' W 009°10'0 0.0
2014-Sep-23 16:32N 38°42' W 009°10'0 0.0
2014-Sep-23 15:32N 38°42' W 009°10'0 0.0
2014-Sep-23 14:32N 38°42' W 009°10'0 0.0
2014-Sep-23 13:32N 38°42' W 009°10'0 0.0
2014-Sep-23 12:32N 38°42' W 009°10'0 0.0
2014-Sep-23 11:32N 38°42' W 009°10'0 0.0
2014-Sep-23 10:32N 38°42' W 009°10'0 0.0
2014-Sep-23 09:32N 38°42' W 009°10'0 0.0
2014-Sep-23 08:32N 38°42' W 009°10'0 0.0
2014-Sep-23 07:32N 38°42' W 009°10'0 0.0
2014-Sep-23 06:32N 38°42' W 009°10'3 3.1
2014-Sep-23 05:33N 38°41' W 009°14'4 4.4
2014-Sep-23 04:33N 38°40' W 009°19'7 6.9
2014-Sep-23 03:33N 38°37' W 009°27'10 9.8
2014-Sep-23 02:33N 38°39' W 009°40'9 8.6
2014-Sep-23 01:27N 38°48' W 009°44'9 9.8
2014-Sep-23 00:30N 38°57' W 009°44'5 0.2
2014-Sep-21 13:33N 38°57' W 009°51'1412.1
2014-Sep-21 12:25N 38°43' W 009°51'1012.2
2014-Sep-21 11:33N 38°33' W 009°48'1212.0
2014-Sep-21 10:32N 38°21' W 009°45'1212.2
2014-Sep-21 09:33N 38°10' W 009°41'1211.9
2014-Sep-21 08:33N 37°58' W 009°38'1211.8
2014-Sep-21 07:33N 37°47' W 009°35'1111.4
2014-Sep-21 06:33N 37°35' W 009°31'1111.5
2014-Sep-21 05:33N 37°24' W 009°28'4710.8
2014-Sep-21 01:11N 36°42' W 009°02'711.5
2014-Sep-21 00:34N 36°40' W 008°53'1211.7
2014-Sep-20 23:33N 36°36' W 008°39'1111.4
2014-Sep-20 22:34N 36°33' W 008°26'1211.5
2014-Sep-20 21:31N 36°29' W 008°12'1111.5
2014-Sep-20 20:34N 36°26' W 007°59'1211.7
2014-Sep-20 19:34N 36°22' W 007°45'1211.8
2014-Sep-20 18:33N 36°18' W 007°31'1211.8
2014-Sep-20 17:33N 36°15' W 007°17'  

Dump ship's entire track history